<?xml version="1.0" encoding="UTF-8" standalone="no" ?>
<gpx xmlns="http://www.topografix.com/GPX/1/1" xmlns:xsi="http://www.w3.org/2001/XMLSchema-instance" xsi:schemaLocation="http://www.topografix.com/GPX/1/1 http://www.topografix.com/GPX/1/1/gpx.xsd" version="1.1" creator="VisuGPX - https://www.visugpx.com">
  <metadata>
    <name>Morlais_BaieLocquenole_20km</name>
    <desc><![CDATA[gnerando idor:8988120]]></desc>
  </metadata>
  <trk>
    <name><![CDATA[Morlaix_BaieLocquenélé_19.7km-8988120]]></name>
    <extensions>
      <line xmlns="http://www.topografix.com/GPX/gpx_style/0/2">
        <color>0000FF</color>
        <width>4</width>
      </line>
    </extensions>
    <trkseg>
      <trkpt lat="48.62527" lon="-3.85961">
        <ele>16</ele>
        <time>2023-11-05T10:48:33Z</time>
      </trkpt>
      <trkpt lat="48.62516" lon="-3.85981">
        <ele>17</ele>
        <time>2023-11-05T10:48:56Z</time>
      </trkpt>
      <trkpt lat="48.62508" lon="-3.85991">
        <ele>17</ele>
        <time>2023-11-05T10:49:10Z</time>
      </trkpt>
      <trkpt lat="48.62506" lon="-3.86016">
        <ele>18</ele>
        <time>2023-11-05T10:49:32Z</time>
      </trkpt>
      <trkpt lat="48.62486" lon="-3.86035">
        <ele>19</ele>
        <time>2023-11-05T10:50:04Z</time>
      </trkpt>
      <trkpt lat="48.62472" lon="-3.86054">
        <ele>21</ele>
        <time>2023-11-05T10:50:29Z</time>
      </trkpt>
      <trkpt lat="48.62459" lon="-3.86073">
        <ele>22</ele>
        <time>2023-11-05T10:50:53Z</time>
      </trkpt>
      <trkpt lat="48.62452" lon="-3.861">
        <ele>24</ele>
        <time>2023-11-05T10:51:18Z</time>
      </trkpt>
      <trkpt lat="48.62451" lon="-3.86125">
        <ele>24</ele>
        <time>2023-11-05T10:51:40Z</time>
      </trkpt>
      <trkpt lat="48.62454" lon="-3.86149">
        <ele>25</ele>
        <time>2023-11-05T10:52:02Z</time>
      </trkpt>
      <trkpt lat="48.62445" lon="-3.86174">
        <ele>26</ele>
        <time>2023-11-05T10:52:27Z</time>
      </trkpt>
      <trkpt lat="48.62436" lon="-3.86198">
        <ele>28</ele>
        <time>2023-11-05T10:52:51Z</time>
      </trkpt>
      <trkpt lat="48.62442" lon="-3.86226">
        <ele>29</ele>
        <time>2023-11-05T10:53:17Z</time>
      </trkpt>
      <trkpt lat="48.62447" lon="-3.86251">
        <ele>31</ele>
        <time>2023-11-05T10:53:40Z</time>
      </trkpt>
      <trkpt lat="48.62451" lon="-3.86278">
        <ele>33</ele>
        <time>2023-11-05T10:54:05Z</time>
      </trkpt>
      <trkpt lat="48.62458" lon="-3.86305">
        <ele>35</ele>
        <time>2023-11-05T10:54:30Z</time>
      </trkpt>
      <trkpt lat="48.62474" lon="-3.86324">
        <ele>37</ele>
        <time>2023-11-05T10:54:58Z</time>
      </trkpt>
      <trkpt lat="48.62476" lon="-3.86353">
        <ele>39</ele>
        <time>2023-11-05T10:55:23Z</time>
      </trkpt>
      <trkpt lat="48.62489" lon="-3.86373">
        <ele>41</ele>
        <time>2023-11-05T10:55:48Z</time>
      </trkpt>
      <trkpt lat="48.62508" lon="-3.86373">
        <ele>42</ele>
        <time>2023-11-05T10:56:13Z</time>
      </trkpt>
      <trkpt lat="48.62526" lon="-3.86362">
        <ele>41</ele>
        <time>2023-11-05T10:56:39Z</time>
      </trkpt>
      <trkpt lat="48.62541" lon="-3.8637">
        <ele>42</ele>
        <time>2023-11-05T10:57:00Z</time>
      </trkpt>
      <trkpt lat="48.62536" lon="-3.86401">
        <ele>44</ele>
        <time>2023-11-05T10:57:29Z</time>
      </trkpt>
      <trkpt lat="48.62527" lon="-3.86425">
        <ele>46</ele>
        <time>2023-11-05T10:57:53Z</time>
      </trkpt>
      <trkpt lat="48.62523" lon="-3.86452">
        <ele>48</ele>
        <time>2023-11-05T10:58:17Z</time>
      </trkpt>
      <trkpt lat="48.62522" lon="-3.86479">
        <ele>51</ele>
        <time>2023-11-05T10:58:41Z</time>
      </trkpt>
      <trkpt lat="48.62538" lon="-3.86492">
        <ele>52</ele>
        <time>2023-11-05T10:59:05Z</time>
      </trkpt>
      <trkpt lat="48.62574" lon="-3.8651">
        <ele>53</ele>
        <time>2023-11-05T10:59:56Z</time>
      </trkpt>
      <trkpt lat="48.62592" lon="-3.8652">
        <ele>54</ele>
        <time>2023-11-05T11:00:22Z</time>
      </trkpt>
      <trkpt lat="48.62611" lon="-3.86528">
        <ele>54</ele>
        <time>2023-11-05T11:00:48Z</time>
      </trkpt>
      <trkpt lat="48.6263" lon="-3.86535">
        <ele>54</ele>
        <time>2023-11-05T11:01:14Z</time>
      </trkpt>
      <trkpt lat="48.62649" lon="-3.86544">
        <ele>54</ele>
        <time>2023-11-05T11:01:41Z</time>
      </trkpt>
      <trkpt lat="48.62668" lon="-3.8655">
        <ele>54</ele>
        <time>2023-11-05T11:02:07Z</time>
      </trkpt>
      <trkpt lat="48.62686" lon="-3.86557">
        <ele>54</ele>
        <time>2023-11-05T11:02:31Z</time>
      </trkpt>
      <trkpt lat="48.62722" lon="-3.86577">
        <ele>54</ele>
        <time>2023-11-05T11:03:23Z</time>
      </trkpt>
      <trkpt lat="48.62738" lon="-3.8659">
        <ele>55</ele>
        <time>2023-11-05T11:03:47Z</time>
      </trkpt>
      <trkpt lat="48.62757" lon="-3.86599">
        <ele>55</ele>
        <time>2023-11-05T11:04:13Z</time>
      </trkpt>
      <trkpt lat="48.62774" lon="-3.86609">
        <ele>54</ele>
        <time>2023-11-05T11:04:38Z</time>
      </trkpt>
      <trkpt lat="48.62792" lon="-3.86616">
        <ele>53</ele>
        <time>2023-11-05T11:05:02Z</time>
      </trkpt>
      <trkpt lat="48.62812" lon="-3.8662">
        <ele>52</ele>
        <time>2023-11-05T11:05:29Z</time>
      </trkpt>
      <trkpt lat="48.62824" lon="-3.86636">
        <ele>52</ele>
        <time>2023-11-05T11:05:51Z</time>
      </trkpt>
      <trkpt lat="48.62826" lon="-3.8665">
        <ele>53</ele>
        <time>2023-11-05T11:06:03Z</time>
      </trkpt>
      <trkpt lat="48.62813" lon="-3.86665">
        <ele>55</ele>
        <time>2023-11-05T11:06:25Z</time>
      </trkpt>
      <trkpt lat="48.62792" lon="-3.86697">
        <ele>59</ele>
        <time>2023-11-05T11:07:05Z</time>
      </trkpt>
      <trkpt lat="48.62774" lon="-3.86722">
        <ele>62</ele>
        <time>2023-11-05T11:07:38Z</time>
      </trkpt>
      <trkpt lat="48.62749" lon="-3.86765">
        <ele>66</ele>
        <time>2023-11-05T11:08:28Z</time>
      </trkpt>
      <trkpt lat="48.62739" lon="-3.86781">
        <ele>67</ele>
        <time>2023-11-05T11:08:47Z</time>
      </trkpt>
      <trkpt lat="48.62722" lon="-3.86813">
        <ele>68</ele>
        <time>2023-11-05T11:09:24Z</time>
      </trkpt>
      <trkpt lat="48.62711" lon="-3.86839">
        <ele>70</ele>
        <time>2023-11-05T11:09:51Z</time>
      </trkpt>
      <trkpt lat="48.62705" lon="-3.86864">
        <ele>71</ele>
        <time>2023-11-05T11:10:14Z</time>
      </trkpt>
      <trkpt lat="48.62691" lon="-3.86972">
        <ele>74</ele>
        <time>2023-11-05T11:11:51Z</time>
      </trkpt>
      <trkpt lat="48.62687" lon="-3.87">
        <ele>75</ele>
        <time>2023-11-05T11:12:17Z</time>
      </trkpt>
      <trkpt lat="48.62671" lon="-3.87052">
        <ele>76</ele>
        <time>2023-11-05T11:13:07Z</time>
      </trkpt>
      <trkpt lat="48.62663" lon="-3.87077">
        <ele>76</ele>
        <time>2023-11-05T11:13:32Z</time>
      </trkpt>
      <trkpt lat="48.62653" lon="-3.87097">
        <ele>77</ele>
        <time>2023-11-05T11:13:54Z</time>
      </trkpt>
      <trkpt lat="48.62644" lon="-3.8712">
        <ele>78</ele>
        <time>2023-11-05T11:14:18Z</time>
      </trkpt>
      <trkpt lat="48.62628" lon="-3.87115">
        <ele>78</ele>
        <time>2023-11-05T11:14:39Z</time>
      </trkpt>
      <trkpt lat="48.62611" lon="-3.87109">
        <ele>79</ele>
        <time>2023-11-05T11:15:03Z</time>
      </trkpt>
      <trkpt lat="48.62592" lon="-3.87108">
        <ele>79</ele>
        <time>2023-11-05T11:15:28Z</time>
      </trkpt>
      <trkpt lat="48.62573" lon="-3.87105">
        <ele>80</ele>
        <time>2023-11-05T11:15:53Z</time>
      </trkpt>
      <trkpt lat="48.62555" lon="-3.87103">
        <ele>80</ele>
        <time>2023-11-05T11:16:18Z</time>
      </trkpt>
      <trkpt lat="48.62536" lon="-3.87102">
        <ele>80</ele>
        <time>2023-11-05T11:16:43Z</time>
      </trkpt>
      <trkpt lat="48.62518" lon="-3.871">
        <ele>80</ele>
        <time>2023-11-05T11:17:07Z</time>
      </trkpt>
      <trkpt lat="48.62502" lon="-3.87122">
        <ele>80</ele>
        <time>2023-11-05T11:17:36Z</time>
      </trkpt>
      <trkpt lat="48.62504" lon="-3.87148">
        <ele>81</ele>
        <time>2023-11-05T11:17:59Z</time>
      </trkpt>
      <trkpt lat="48.62508" lon="-3.87178">
        <ele>81</ele>
        <time>2023-11-05T11:18:26Z</time>
      </trkpt>
      <trkpt lat="48.6251" lon="-3.87203">
        <ele>81</ele>
        <time>2023-11-05T11:18:48Z</time>
      </trkpt>
      <trkpt lat="48.62514" lon="-3.87236">
        <ele>80</ele>
        <time>2023-11-05T11:19:18Z</time>
      </trkpt>
      <trkpt lat="48.62517" lon="-3.87262">
        <ele>80</ele>
        <time>2023-11-05T11:19:41Z</time>
      </trkpt>
      <trkpt lat="48.62526" lon="-3.87287">
        <ele>80</ele>
        <time>2023-11-05T11:20:06Z</time>
      </trkpt>
      <trkpt lat="48.62534" lon="-3.87312">
        <ele>80</ele>
        <time>2023-11-05T11:20:31Z</time>
      </trkpt>
      <trkpt lat="48.62544" lon="-3.87336">
        <ele>80</ele>
        <time>2023-11-05T11:20:56Z</time>
      </trkpt>
      <trkpt lat="48.62554" lon="-3.87362">
        <ele>80</ele>
        <time>2023-11-05T11:21:22Z</time>
      </trkpt>
      <trkpt lat="48.62566" lon="-3.87383">
        <ele>80</ele>
        <time>2023-11-05T11:21:47Z</time>
      </trkpt>
      <trkpt lat="48.62584" lon="-3.87397">
        <ele>81</ele>
        <time>2023-11-05T11:22:14Z</time>
      </trkpt>
      <trkpt lat="48.62634" lon="-3.87443">
        <ele>82</ele>
        <time>2023-11-05T11:23:32Z</time>
      </trkpt>
      <trkpt lat="48.62649" lon="-3.87459">
        <ele>83</ele>
        <time>2023-11-05T11:23:56Z</time>
      </trkpt>
      <trkpt lat="48.62664" lon="-3.87478">
        <ele>83</ele>
        <time>2023-11-05T11:24:22Z</time>
      </trkpt>
      <trkpt lat="48.62675" lon="-3.87505">
        <ele>82</ele>
        <time>2023-11-05T11:24:50Z</time>
      </trkpt>
      <trkpt lat="48.6269" lon="-3.87524">
        <ele>82</ele>
        <time>2023-11-05T11:25:16Z</time>
      </trkpt>
      <trkpt lat="48.62708" lon="-3.87534">
        <ele>81</ele>
        <time>2023-11-05T11:25:42Z</time>
      </trkpt>
      <trkpt lat="48.62727" lon="-3.87541">
        <ele>81</ele>
        <time>2023-11-05T11:26:08Z</time>
      </trkpt>
      <trkpt lat="48.62746" lon="-3.87551">
        <ele>81</ele>
        <time>2023-11-05T11:26:35Z</time>
      </trkpt>
      <trkpt lat="48.62754" lon="-3.87555">
        <ele>81</ele>
        <time>2023-11-05T11:26:46Z</time>
      </trkpt>
      <trkpt lat="48.6281" lon="-3.87578">
        <ele>79</ele>
        <time>2023-11-05T11:28:04Z</time>
      </trkpt>
      <trkpt lat="48.62828" lon="-3.87588">
        <ele>79</ele>
        <time>2023-11-05T11:28:29Z</time>
      </trkpt>
      <trkpt lat="48.62847" lon="-3.87593">
        <ele>79</ele>
        <time>2023-11-05T11:28:55Z</time>
      </trkpt>
      <trkpt lat="48.62866" lon="-3.87601">
        <ele>78</ele>
        <time>2023-11-05T11:29:21Z</time>
      </trkpt>
      <trkpt lat="48.62885" lon="-3.87608">
        <ele>78</ele>
        <time>2023-11-05T11:29:47Z</time>
      </trkpt>
      <trkpt lat="48.62904" lon="-3.87614">
        <ele>77</ele>
        <time>2023-11-05T11:30:13Z</time>
      </trkpt>
      <trkpt lat="48.62922" lon="-3.8762">
        <ele>77</ele>
        <time>2023-11-05T11:30:38Z</time>
      </trkpt>
      <trkpt lat="48.62941" lon="-3.87621">
        <ele>76</ele>
        <time>2023-11-05T11:31:03Z</time>
      </trkpt>
      <trkpt lat="48.62949" lon="-3.87612">
        <ele>76</ele>
        <time>2023-11-05T11:31:17Z</time>
      </trkpt>
      <trkpt lat="48.62966" lon="-3.87592">
        <ele>75</ele>
        <time>2023-11-05T11:31:45Z</time>
      </trkpt>
      <trkpt lat="48.62983" lon="-3.87567">
        <ele>75</ele>
        <time>2023-11-05T11:32:17Z</time>
      </trkpt>
      <trkpt lat="48.6301" lon="-3.87523">
        <ele>74</ele>
        <time>2023-11-05T11:33:10Z</time>
      </trkpt>
      <trkpt lat="48.63025" lon="-3.87503">
        <ele>73</ele>
        <time>2023-11-05T11:33:37Z</time>
      </trkpt>
      <trkpt lat="48.63041" lon="-3.87491">
        <ele>72</ele>
        <time>2023-11-05T11:34:00Z</time>
      </trkpt>
      <trkpt lat="48.63061" lon="-3.87491">
        <ele>72</ele>
        <time>2023-11-05T11:34:27Z</time>
      </trkpt>
      <trkpt lat="48.63082" lon="-3.87486">
        <ele>71</ele>
        <time>2023-11-05T11:34:55Z</time>
      </trkpt>
      <trkpt lat="48.63098" lon="-3.87481">
        <ele>70</ele>
        <time>2023-11-05T11:35:17Z</time>
      </trkpt>
      <trkpt lat="48.63116" lon="-3.87475">
        <ele>69</ele>
        <time>2023-11-05T11:35:42Z</time>
      </trkpt>
      <trkpt lat="48.63135" lon="-3.87471">
        <ele>69</ele>
        <time>2023-11-05T11:36:07Z</time>
      </trkpt>
      <trkpt lat="48.63149" lon="-3.8749">
        <ele>69</ele>
        <time>2023-11-05T11:36:33Z</time>
      </trkpt>
      <trkpt lat="48.63163" lon="-3.87512">
        <ele>69</ele>
        <time>2023-11-05T11:37:00Z</time>
      </trkpt>
      <trkpt lat="48.63171" lon="-3.87513">
        <ele>69</ele>
        <time>2023-11-05T11:37:10Z</time>
      </trkpt>
      <trkpt lat="48.63189" lon="-3.87519">
        <ele>68</ele>
        <time>2023-11-05T11:37:35Z</time>
      </trkpt>
      <trkpt lat="48.6321" lon="-3.8752">
        <ele>67</ele>
        <time>2023-11-05T11:38:03Z</time>
      </trkpt>
      <trkpt lat="48.63221" lon="-3.87521">
        <ele>66</ele>
        <time>2023-11-05T11:38:18Z</time>
      </trkpt>
      <trkpt lat="48.63238" lon="-3.87514">
        <ele>65</ele>
        <time>2023-11-05T11:38:41Z</time>
      </trkpt>
      <trkpt lat="48.63257" lon="-3.87505">
        <ele>64</ele>
        <time>2023-11-05T11:39:08Z</time>
      </trkpt>
      <trkpt lat="48.63276" lon="-3.87503">
        <ele>62</ele>
        <time>2023-11-05T11:39:33Z</time>
      </trkpt>
      <trkpt lat="48.63295" lon="-3.87514">
        <ele>61</ele>
        <time>2023-11-05T11:40:00Z</time>
      </trkpt>
      <trkpt lat="48.63313" lon="-3.87527">
        <ele>60</ele>
        <time>2023-11-05T11:40:27Z</time>
      </trkpt>
      <trkpt lat="48.63331" lon="-3.87536">
        <ele>58</ele>
        <time>2023-11-05T11:40:52Z</time>
      </trkpt>
      <trkpt lat="48.63348" lon="-3.87548">
        <ele>58</ele>
        <time>2023-11-05T11:41:17Z</time>
      </trkpt>
      <trkpt lat="48.63365" lon="-3.87558">
        <ele>57</ele>
        <time>2023-11-05T11:41:41Z</time>
      </trkpt>
      <trkpt lat="48.63383" lon="-3.87569">
        <ele>56</ele>
        <time>2023-11-05T11:42:07Z</time>
      </trkpt>
      <trkpt lat="48.63402" lon="-3.87574">
        <ele>55</ele>
        <time>2023-11-05T11:42:33Z</time>
      </trkpt>
      <trkpt lat="48.63421" lon="-3.87578">
        <ele>54</ele>
        <time>2023-11-05T11:42:59Z</time>
      </trkpt>
      <trkpt lat="48.63439" lon="-3.87586">
        <ele>52</ele>
        <time>2023-11-05T11:43:24Z</time>
      </trkpt>
      <trkpt lat="48.63479" lon="-3.87601">
        <ele>49</ele>
        <time>2023-11-05T11:44:19Z</time>
      </trkpt>
      <trkpt lat="48.63493" lon="-3.87609">
        <ele>48</ele>
        <time>2023-11-05T11:44:39Z</time>
      </trkpt>
      <trkpt lat="48.63512" lon="-3.87608">
        <ele>46</ele>
        <time>2023-11-05T11:45:04Z</time>
      </trkpt>
      <trkpt lat="48.63529" lon="-3.87619">
        <ele>45</ele>
        <time>2023-11-05T11:45:29Z</time>
      </trkpt>
      <trkpt lat="48.63545" lon="-3.87636">
        <ele>44</ele>
        <time>2023-11-05T11:45:55Z</time>
      </trkpt>
      <trkpt lat="48.6355" lon="-3.87658">
        <ele>43</ele>
        <time>2023-11-05T11:46:15Z</time>
      </trkpt>
      <trkpt lat="48.63546" lon="-3.87684">
        <ele>44</ele>
        <time>2023-11-05T11:46:39Z</time>
      </trkpt>
      <trkpt lat="48.63541" lon="-3.87718">
        <ele>46</ele>
        <time>2023-11-05T11:47:10Z</time>
      </trkpt>
      <trkpt lat="48.63535" lon="-3.87765">
        <ele>49</ele>
        <time>2023-11-05T11:47:52Z</time>
      </trkpt>
      <trkpt lat="48.6353" lon="-3.87814">
        <ele>50</ele>
        <time>2023-11-05T11:48:36Z</time>
      </trkpt>
      <trkpt lat="48.63521" lon="-3.87836">
        <ele>52</ele>
        <time>2023-11-05T11:48:58Z</time>
      </trkpt>
      <trkpt lat="48.63514" lon="-3.87871">
        <ele>54</ele>
        <time>2023-11-05T11:49:31Z</time>
      </trkpt>
      <trkpt lat="48.63506" lon="-3.87896">
        <ele>56</ele>
        <time>2023-11-05T11:49:55Z</time>
      </trkpt>
      <trkpt lat="48.63496" lon="-3.87914">
        <ele>58</ele>
        <time>2023-11-05T11:50:16Z</time>
      </trkpt>
      <trkpt lat="48.63475" lon="-3.8792">
        <ele>61</ele>
        <time>2023-11-05T11:50:44Z</time>
      </trkpt>
      <trkpt lat="48.63472" lon="-3.87949">
        <ele>62</ele>
        <time>2023-11-05T11:51:10Z</time>
      </trkpt>
      <trkpt lat="48.63468" lon="-3.87975">
        <ele>64</ele>
        <time>2023-11-05T11:51:34Z</time>
      </trkpt>
      <trkpt lat="48.63484" lon="-3.87997">
        <ele>64</ele>
        <time>2023-11-05T11:52:03Z</time>
      </trkpt>
      <trkpt lat="48.63503" lon="-3.87994">
        <ele>61</ele>
        <time>2023-11-05T11:52:28Z</time>
      </trkpt>
      <trkpt lat="48.63522" lon="-3.87992">
        <ele>59</ele>
        <time>2023-11-05T11:52:54Z</time>
      </trkpt>
      <trkpt lat="48.63541" lon="-3.87991">
        <ele>57</ele>
        <time>2023-11-05T11:53:19Z</time>
      </trkpt>
      <trkpt lat="48.63588" lon="-3.87988">
        <ele>52</ele>
        <time>2023-11-05T11:54:22Z</time>
      </trkpt>
      <trkpt lat="48.63607" lon="-3.87985">
        <ele>50</ele>
        <time>2023-11-05T11:54:47Z</time>
      </trkpt>
      <trkpt lat="48.63663" lon="-3.87985">
        <ele>46</ele>
        <time>2023-11-05T11:56:02Z</time>
      </trkpt>
      <trkpt lat="48.63683" lon="-3.87988">
        <ele>44</ele>
        <time>2023-11-05T11:56:29Z</time>
      </trkpt>
      <trkpt lat="48.63702" lon="-3.88005">
        <ele>44</ele>
        <time>2023-11-05T11:56:58Z</time>
      </trkpt>
      <trkpt lat="48.63725" lon="-3.88043">
        <ele>45</ele>
        <time>2023-11-05T11:57:44Z</time>
      </trkpt>
      <trkpt lat="48.63736" lon="-3.88056">
        <ele>45</ele>
        <time>2023-11-05T11:58:02Z</time>
      </trkpt>
      <trkpt lat="48.63738" lon="-3.88073">
        <ele>47</ele>
        <time>2023-11-05T11:58:18Z</time>
      </trkpt>
      <trkpt lat="48.6374" lon="-3.88113">
        <ele>49</ele>
        <time>2023-11-05T11:58:53Z</time>
      </trkpt>
      <trkpt lat="48.63742" lon="-3.88134">
        <ele>50</ele>
        <time>2023-11-05T11:59:12Z</time>
      </trkpt>
      <trkpt lat="48.63751" lon="-3.88153">
        <ele>50</ele>
        <time>2023-11-05T11:59:32Z</time>
      </trkpt>
      <trkpt lat="48.63779" lon="-3.8818">
        <ele>45</ele>
        <time>2023-11-05T12:00:17Z</time>
      </trkpt>
      <trkpt lat="48.63795" lon="-3.88193">
        <ele>43</ele>
        <time>2023-11-05T12:00:41Z</time>
      </trkpt>
      <trkpt lat="48.63803" lon="-3.88219">
        <ele>43</ele>
        <time>2023-11-05T12:01:06Z</time>
      </trkpt>
      <trkpt lat="48.63769" lon="-3.88258">
        <ele>53</ele>
        <time>2023-11-05T12:02:03Z</time>
      </trkpt>
      <trkpt lat="48.63726" lon="-3.8831">
        <ele>58</ele>
        <time>2023-11-05T12:03:16Z</time>
      </trkpt>
      <trkpt lat="48.63677" lon="-3.88366">
        <ele>64</ele>
        <time>2023-11-05T12:04:38Z</time>
      </trkpt>
      <trkpt lat="48.63657" lon="-3.88389">
        <ele>66</ele>
        <time>2023-11-05T12:05:12Z</time>
      </trkpt>
      <trkpt lat="48.63637" lon="-3.88408">
        <ele>68</ele>
        <time>2023-11-05T12:05:43Z</time>
      </trkpt>
      <trkpt lat="48.63618" lon="-3.88424">
        <ele>69</ele>
        <time>2023-11-05T12:06:12Z</time>
      </trkpt>
      <trkpt lat="48.63744" lon="-3.88622">
        <ele>70</ele>
        <time>2023-11-05T12:10:15Z</time>
      </trkpt>
      <trkpt lat="48.6393" lon="-3.88788">
        <ele>52</ele>
        <time>2023-11-05T12:15:03Z</time>
      </trkpt>
      <trkpt lat="48.63968" lon="-3.88892">
        <ele>48</ele>
        <time>2023-11-05T12:16:48Z</time>
      </trkpt>
      <trkpt lat="48.64085" lon="-3.88968">
        <ele>26</ele>
        <time>2023-11-05T12:19:38Z</time>
      </trkpt>
      <trkpt lat="48.6429" lon="-3.89297">
        <ele>7</ele>
        <time>2023-11-05T12:26:16Z</time>
      </trkpt>
      <trkpt lat="48.63868" lon="-3.89513">
        <ele>15</ele>
        <time>2023-11-05T12:36:11Z</time>
      </trkpt>
      <trkpt lat="48.63496" lon="-3.89307">
        <ele>21</ele>
        <time>2023-11-05T12:45:00Z</time>
      </trkpt>
      <trkpt lat="48.63471" lon="-3.89165">
        <ele>29</ele>
        <time>2023-11-05T12:47:09Z</time>
      </trkpt>
      <trkpt lat="48.63428" lon="-3.89142">
        <ele>28</ele>
        <time>2023-11-05T12:48:10Z</time>
      </trkpt>
      <trkpt lat="48.63169" lon="-3.88852">
        <ele>34</ele>
        <time>2023-11-05T12:55:20Z</time>
      </trkpt>
      <trkpt lat="48.63231" lon="-3.88723">
        <ele>49</ele>
        <time>2023-11-05T12:57:41Z</time>
      </trkpt>
      <trkpt lat="48.63276" lon="-3.88639">
        <ele>57</ele>
        <time>2023-11-05T12:59:16Z</time>
      </trkpt>
      <trkpt lat="48.63343" lon="-3.88438">
        <ele>70</ele>
        <time>2023-11-05T13:02:35Z</time>
      </trkpt>
      <trkpt lat="48.63321" lon="-3.88243">
        <ele>78</ele>
        <time>2023-11-05T13:05:29Z</time>
      </trkpt>
      <trkpt lat="48.63319" lon="-3.88222">
        <ele>79</ele>
        <time>2023-11-05T13:05:48Z</time>
      </trkpt>
      <trkpt lat="48.63304" lon="-3.88215">
        <ele>79</ele>
        <time>2023-11-05T13:06:09Z</time>
      </trkpt>
      <trkpt lat="48.63289" lon="-3.8821">
        <ele>80</ele>
        <time>2023-11-05T13:06:29Z</time>
      </trkpt>
      <trkpt lat="48.6327" lon="-3.882">
        <ele>82</ele>
        <time>2023-11-05T13:06:56Z</time>
      </trkpt>
      <trkpt lat="48.63252" lon="-3.8819">
        <ele>83</ele>
        <time>2023-11-05T13:07:22Z</time>
      </trkpt>
      <trkpt lat="48.63235" lon="-3.8818">
        <ele>85</ele>
        <time>2023-11-05T13:07:46Z</time>
      </trkpt>
      <trkpt lat="48.63217" lon="-3.88165">
        <ele>87</ele>
        <time>2023-11-05T13:08:13Z</time>
      </trkpt>
      <trkpt lat="48.63205" lon="-3.88156">
        <ele>87</ele>
        <time>2023-11-05T13:08:31Z</time>
      </trkpt>
      <trkpt lat="48.63189" lon="-3.8814">
        <ele>88</ele>
        <time>2023-11-05T13:08:57Z</time>
      </trkpt>
      <trkpt lat="48.63175" lon="-3.88123">
        <ele>88</ele>
        <time>2023-11-05T13:09:21Z</time>
      </trkpt>
      <trkpt lat="48.63159" lon="-3.88106">
        <ele>88</ele>
        <time>2023-11-05T13:09:47Z</time>
      </trkpt>
      <trkpt lat="48.63143" lon="-3.88083">
        <ele>87</ele>
        <time>2023-11-05T13:10:16Z</time>
      </trkpt>
      <trkpt lat="48.63133" lon="-3.88072">
        <ele>86</ele>
        <time>2023-11-05T13:10:33Z</time>
      </trkpt>
      <trkpt lat="48.63117" lon="-3.88058">
        <ele>84</ele>
        <time>2023-11-05T13:10:57Z</time>
      </trkpt>
      <trkpt lat="48.631" lon="-3.88046">
        <ele>83</ele>
        <time>2023-11-05T13:11:23Z</time>
      </trkpt>
      <trkpt lat="48.63082" lon="-3.88028">
        <ele>82</ele>
        <time>2023-11-05T13:11:51Z</time>
      </trkpt>
      <trkpt lat="48.63056" lon="-3.88013">
        <ele>82</ele>
        <time>2023-11-05T13:12:28Z</time>
      </trkpt>
      <trkpt lat="48.63037" lon="-3.88002">
        <ele>82</ele>
        <time>2023-11-05T13:12:56Z</time>
      </trkpt>
      <trkpt lat="48.63024" lon="-3.87996">
        <ele>82</ele>
        <time>2023-11-05T13:13:14Z</time>
      </trkpt>
      <trkpt lat="48.63002" lon="-3.87988">
        <ele>82</ele>
        <time>2023-11-05T13:13:44Z</time>
      </trkpt>
      <trkpt lat="48.62983" lon="-3.87979">
        <ele>82</ele>
        <time>2023-11-05T13:14:10Z</time>
      </trkpt>
      <trkpt lat="48.62961" lon="-3.87971">
        <ele>82</ele>
        <time>2023-11-05T13:14:41Z</time>
      </trkpt>
      <trkpt lat="48.62938" lon="-3.87966">
        <ele>82</ele>
        <time>2023-11-05T13:15:12Z</time>
      </trkpt>
      <trkpt lat="48.62916" lon="-3.8796">
        <ele>81</ele>
        <time>2023-11-05T13:15:42Z</time>
      </trkpt>
      <trkpt lat="48.62902" lon="-3.87956">
        <ele>82</ele>
        <time>2023-11-05T13:16:01Z</time>
      </trkpt>
      <trkpt lat="48.62886" lon="-3.87941">
        <ele>82</ele>
        <time>2023-11-05T13:16:26Z</time>
      </trkpt>
      <trkpt lat="48.62875" lon="-3.87925">
        <ele>82</ele>
        <time>2023-11-05T13:16:46Z</time>
      </trkpt>
      <trkpt lat="48.6286" lon="-3.87901">
        <ele>81</ele>
        <time>2023-11-05T13:17:15Z</time>
      </trkpt>
      <trkpt lat="48.62842" lon="-3.87916">
        <ele>82</ele>
        <time>2023-11-05T13:17:43Z</time>
      </trkpt>
      <trkpt lat="48.62829" lon="-3.87926">
        <ele>82</ele>
        <time>2023-11-05T13:18:02Z</time>
      </trkpt>
      <trkpt lat="48.62831" lon="-3.87963">
        <ele>82</ele>
        <time>2023-11-05T13:18:35Z</time>
      </trkpt>
      <trkpt lat="48.62831" lon="-3.87994">
        <ele>82</ele>
        <time>2023-11-05T13:19:02Z</time>
      </trkpt>
      <trkpt lat="48.62831" lon="-3.88016">
        <ele>80</ele>
        <time>2023-11-05T13:19:22Z</time>
      </trkpt>
      <trkpt lat="48.62806" lon="-3.88041">
        <ele>78</ele>
        <time>2023-11-05T13:20:02Z</time>
      </trkpt>
      <trkpt lat="48.62794" lon="-3.88052">
        <ele>78</ele>
        <time>2023-11-05T13:20:20Z</time>
      </trkpt>
      <trkpt lat="48.62783" lon="-3.8806">
        <ele>77</ele>
        <time>2023-11-05T13:20:37Z</time>
      </trkpt>
      <trkpt lat="48.62761" lon="-3.88079">
        <ele>76</ele>
        <time>2023-11-05T13:21:10Z</time>
      </trkpt>
      <trkpt lat="48.62735" lon="-3.88097">
        <ele>75</ele>
        <time>2023-11-05T13:21:48Z</time>
      </trkpt>
      <trkpt lat="48.62707" lon="-3.88098">
        <ele>76</ele>
        <time>2023-11-05T13:22:26Z</time>
      </trkpt>
      <trkpt lat="48.62677" lon="-3.88093">
        <ele>77</ele>
        <time>2023-11-05T13:23:06Z</time>
      </trkpt>
      <trkpt lat="48.62605" lon="-3.88096">
        <ele>73</ele>
        <time>2023-11-05T13:24:42Z</time>
      </trkpt>
      <trkpt lat="48.62586" lon="-3.88093">
        <ele>71</ele>
        <time>2023-11-05T13:25:08Z</time>
      </trkpt>
      <trkpt lat="48.62569" lon="-3.8808">
        <ele>70</ele>
        <time>2023-11-05T13:25:33Z</time>
      </trkpt>
      <trkpt lat="48.62551" lon="-3.88063">
        <ele>69</ele>
        <time>2023-11-05T13:26:01Z</time>
      </trkpt>
      <trkpt lat="48.62538" lon="-3.88052">
        <ele>68</ele>
        <time>2023-11-05T13:26:21Z</time>
      </trkpt>
      <trkpt lat="48.62503" lon="-3.88029">
        <ele>64</ele>
        <time>2023-11-05T13:27:12Z</time>
      </trkpt>
      <trkpt lat="48.62482" lon="-3.88018">
        <ele>62</ele>
        <time>2023-11-05T13:27:42Z</time>
      </trkpt>
      <trkpt lat="48.62463" lon="-3.88014">
        <ele>60</ele>
        <time>2023-11-05T13:28:08Z</time>
      </trkpt>
      <trkpt lat="48.62444" lon="-3.88005">
        <ele>58</ele>
        <time>2023-11-05T13:28:34Z</time>
      </trkpt>
      <trkpt lat="48.62427" lon="-3.87994">
        <ele>56</ele>
        <time>2023-11-05T13:28:59Z</time>
      </trkpt>
      <trkpt lat="48.6241" lon="-3.87983">
        <ele>55</ele>
        <time>2023-11-05T13:29:23Z</time>
      </trkpt>
      <trkpt lat="48.62373" lon="-3.87962">
        <ele>55</ele>
        <time>2023-11-05T13:30:16Z</time>
      </trkpt>
      <trkpt lat="48.62354" lon="-3.87958">
        <ele>54</ele>
        <time>2023-11-05T13:30:42Z</time>
      </trkpt>
      <trkpt lat="48.62334" lon="-3.87958">
        <ele>54</ele>
        <time>2023-11-05T13:31:08Z</time>
      </trkpt>
      <trkpt lat="48.62315" lon="-3.87954">
        <ele>55</ele>
        <time>2023-11-05T13:31:34Z</time>
      </trkpt>
      <trkpt lat="48.62295" lon="-3.87958">
        <ele>56</ele>
        <time>2023-11-05T13:32:01Z</time>
      </trkpt>
      <trkpt lat="48.62278" lon="-3.87958">
        <ele>57</ele>
        <time>2023-11-05T13:32:24Z</time>
      </trkpt>
      <trkpt lat="48.62264" lon="-3.87962">
        <ele>58</ele>
        <time>2023-11-05T13:32:43Z</time>
      </trkpt>
      <trkpt lat="48.62245" lon="-3.87964">
        <ele>60</ele>
        <time>2023-11-05T13:33:08Z</time>
      </trkpt>
      <trkpt lat="48.62206" lon="-3.8797">
        <ele>62</ele>
        <time>2023-11-05T13:34:00Z</time>
      </trkpt>
      <trkpt lat="48.62187" lon="-3.87975">
        <ele>63</ele>
        <time>2023-11-05T13:34:26Z</time>
      </trkpt>
      <trkpt lat="48.62136" lon="-3.87982">
        <ele>65</ele>
        <time>2023-11-05T13:35:34Z</time>
      </trkpt>
      <trkpt lat="48.62125" lon="-3.87983">
        <ele>66</ele>
        <time>2023-11-05T13:35:49Z</time>
      </trkpt>
      <trkpt lat="48.62111" lon="-3.88001">
        <ele>65</ele>
        <time>2023-11-05T13:36:14Z</time>
      </trkpt>
      <trkpt lat="48.6212" lon="-3.88079">
        <ele>63</ele>
        <time>2023-11-05T13:37:24Z</time>
      </trkpt>
      <trkpt lat="48.62115" lon="-3.88104">
        <ele>62</ele>
        <time>2023-11-05T13:37:47Z</time>
      </trkpt>
      <trkpt lat="48.62094" lon="-3.88106">
        <ele>63</ele>
        <time>2023-11-05T13:38:15Z</time>
      </trkpt>
      <trkpt lat="48.62075" lon="-3.88112">
        <ele>62</ele>
        <time>2023-11-05T13:38:41Z</time>
      </trkpt>
      <trkpt lat="48.62054" lon="-3.88116">
        <ele>63</ele>
        <time>2023-11-05T13:39:09Z</time>
      </trkpt>
      <trkpt lat="48.62037" lon="-3.88121">
        <ele>63</ele>
        <time>2023-11-05T13:39:32Z</time>
      </trkpt>
      <trkpt lat="48.6202" lon="-3.88129">
        <ele>63</ele>
        <time>2023-11-05T13:39:56Z</time>
      </trkpt>
      <trkpt lat="48.62002" lon="-3.8814">
        <ele>64</ele>
        <time>2023-11-05T13:40:22Z</time>
      </trkpt>
      <trkpt lat="48.61982" lon="-3.88149">
        <ele>64</ele>
        <time>2023-11-05T13:40:49Z</time>
      </trkpt>
      <trkpt lat="48.61973" lon="-3.88154">
        <ele>65</ele>
        <time>2023-11-05T13:41:02Z</time>
      </trkpt>
      <trkpt lat="48.61955" lon="-3.88157">
        <ele>65</ele>
        <time>2023-11-05T13:41:26Z</time>
      </trkpt>
      <trkpt lat="48.61914" lon="-3.88167">
        <ele>67</ele>
        <time>2023-11-05T13:42:22Z</time>
      </trkpt>
      <trkpt lat="48.61905" lon="-3.8817">
        <ele>67</ele>
        <time>2023-11-05T13:42:34Z</time>
      </trkpt>
      <trkpt lat="48.61871" lon="-3.88177">
        <ele>68</ele>
        <time>2023-11-05T13:43:20Z</time>
      </trkpt>
      <trkpt lat="48.61852" lon="-3.88181">
        <ele>69</ele>
        <time>2023-11-05T13:43:46Z</time>
      </trkpt>
      <trkpt lat="48.61831" lon="-3.88181">
        <ele>69</ele>
        <time>2023-11-05T13:44:14Z</time>
      </trkpt>
      <trkpt lat="48.61812" lon="-3.88182">
        <ele>69</ele>
        <time>2023-11-05T13:44:39Z</time>
      </trkpt>
      <trkpt lat="48.61796" lon="-3.88177">
        <ele>70</ele>
        <time>2023-11-05T13:45:01Z</time>
      </trkpt>
      <trkpt lat="48.61787" lon="-3.88169">
        <ele>70</ele>
        <time>2023-11-05T13:45:15Z</time>
      </trkpt>
      <trkpt lat="48.61774" lon="-3.88161">
        <ele>70</ele>
        <time>2023-11-05T13:45:33Z</time>
      </trkpt>
      <trkpt lat="48.61758" lon="-3.88143">
        <ele>70</ele>
        <time>2023-11-05T13:46:00Z</time>
      </trkpt>
      <trkpt lat="48.61752" lon="-3.88116">
        <ele>71</ele>
        <time>2023-11-05T13:46:25Z</time>
      </trkpt>
      <trkpt lat="48.61737" lon="-3.881">
        <ele>70</ele>
        <time>2023-11-05T13:46:50Z</time>
      </trkpt>
      <trkpt lat="48.61724" lon="-3.88083">
        <ele>70</ele>
        <time>2023-11-05T13:47:13Z</time>
      </trkpt>
      <trkpt lat="48.61694" lon="-3.88055">
        <ele>70</ele>
        <time>2023-11-05T13:48:00Z</time>
      </trkpt>
      <trkpt lat="48.61679" lon="-3.8804">
        <ele>70</ele>
        <time>2023-11-05T13:48:24Z</time>
      </trkpt>
      <trkpt lat="48.61672" lon="-3.88019">
        <ele>71</ele>
        <time>2023-11-05T13:48:44Z</time>
      </trkpt>
      <trkpt lat="48.61663" lon="-3.87989">
        <ele>72</ele>
        <time>2023-11-05T13:49:13Z</time>
      </trkpt>
      <trkpt lat="48.61652" lon="-3.87966">
        <ele>71</ele>
        <time>2023-11-05T13:49:38Z</time>
      </trkpt>
      <trkpt lat="48.61642" lon="-3.87961">
        <ele>71</ele>
        <time>2023-11-05T13:49:52Z</time>
      </trkpt>
      <trkpt lat="48.61624" lon="-3.87976">
        <ele>69</ele>
        <time>2023-11-05T13:50:20Z</time>
      </trkpt>
      <trkpt lat="48.6159" lon="-3.88">
        <ele>66</ele>
        <time>2023-11-05T13:51:10Z</time>
      </trkpt>
      <trkpt lat="48.61573" lon="-3.88009">
        <ele>65</ele>
        <time>2023-11-05T13:51:34Z</time>
      </trkpt>
      <trkpt lat="48.61557" lon="-3.88027">
        <ele>64</ele>
        <time>2023-11-05T13:52:01Z</time>
      </trkpt>
      <trkpt lat="48.6154" lon="-3.8804">
        <ele>63</ele>
        <time>2023-11-05T13:52:26Z</time>
      </trkpt>
      <trkpt lat="48.61521" lon="-3.88052">
        <ele>61</ele>
        <time>2023-11-05T13:52:54Z</time>
      </trkpt>
      <trkpt lat="48.61505" lon="-3.88061">
        <ele>60</ele>
        <time>2023-11-05T13:53:16Z</time>
      </trkpt>
      <trkpt lat="48.61486" lon="-3.88068">
        <ele>60</ele>
        <time>2023-11-05T13:53:42Z</time>
      </trkpt>
      <trkpt lat="48.61462" lon="-3.88081">
        <ele>59</ele>
        <time>2023-11-05T13:54:16Z</time>
      </trkpt>
      <trkpt lat="48.61444" lon="-3.88092">
        <ele>58</ele>
        <time>2023-11-05T13:54:42Z</time>
      </trkpt>
      <trkpt lat="48.61441" lon="-3.88067">
        <ele>59</ele>
        <time>2023-11-05T13:55:05Z</time>
      </trkpt>
      <trkpt lat="48.61435" lon="-3.8804">
        <ele>59</ele>
        <time>2023-11-05T13:55:30Z</time>
      </trkpt>
      <trkpt lat="48.61431" lon="-3.88012">
        <ele>60</ele>
        <time>2023-11-05T13:55:55Z</time>
      </trkpt>
      <trkpt lat="48.61422" lon="-3.87986">
        <ele>61</ele>
        <time>2023-11-05T13:56:21Z</time>
      </trkpt>
      <trkpt lat="48.61413" lon="-3.8794">
        <ele>63</ele>
        <time>2023-11-05T13:57:03Z</time>
      </trkpt>
      <trkpt lat="48.61409" lon="-3.87914">
        <ele>64</ele>
        <time>2023-11-05T13:57:27Z</time>
      </trkpt>
      <trkpt lat="48.61405" lon="-3.879">
        <ele>64</ele>
        <time>2023-11-05T13:57:40Z</time>
      </trkpt>
      <trkpt lat="48.61395" lon="-3.87874">
        <ele>64</ele>
        <time>2023-11-05T13:58:07Z</time>
      </trkpt>
      <trkpt lat="48.61386" lon="-3.87849">
        <ele>65</ele>
        <time>2023-11-05T13:58:32Z</time>
      </trkpt>
      <trkpt lat="48.61368" lon="-3.87838">
        <ele>65</ele>
        <time>2023-11-05T13:58:58Z</time>
      </trkpt>
      <trkpt lat="48.61349" lon="-3.87833">
        <ele>65</ele>
        <time>2023-11-05T13:59:24Z</time>
      </trkpt>
      <trkpt lat="48.6133" lon="-3.87834">
        <ele>65</ele>
        <time>2023-11-05T13:59:49Z</time>
      </trkpt>
      <trkpt lat="48.61311" lon="-3.87833">
        <ele>65</ele>
        <time>2023-11-05T14:00:14Z</time>
      </trkpt>
      <trkpt lat="48.61292" lon="-3.87829">
        <ele>66</ele>
        <time>2023-11-05T14:00:40Z</time>
      </trkpt>
      <trkpt lat="48.61271" lon="-3.87826">
        <ele>66</ele>
        <time>2023-11-05T14:01:08Z</time>
      </trkpt>
      <trkpt lat="48.61252" lon="-3.87826">
        <ele>66</ele>
        <time>2023-11-05T14:01:34Z</time>
      </trkpt>
      <trkpt lat="48.61231" lon="-3.87822">
        <ele>66</ele>
        <time>2023-11-05T14:02:02Z</time>
      </trkpt>
      <trkpt lat="48.61213" lon="-3.87816">
        <ele>66</ele>
        <time>2023-11-05T14:02:26Z</time>
      </trkpt>
      <trkpt lat="48.61177" lon="-3.87798">
        <ele>65</ele>
        <time>2023-11-05T14:03:17Z</time>
      </trkpt>
      <trkpt lat="48.61157" lon="-3.87787">
        <ele>66</ele>
        <time>2023-11-05T14:03:45Z</time>
      </trkpt>
      <trkpt lat="48.61155" lon="-3.87769">
        <ele>66</ele>
        <time>2023-11-05T14:04:01Z</time>
      </trkpt>
      <trkpt lat="48.6115" lon="-3.87705">
        <ele>69</ele>
        <time>2023-11-05T14:04:58Z</time>
      </trkpt>
      <trkpt lat="48.61148" lon="-3.87677">
        <ele>71</ele>
        <time>2023-11-05T14:05:23Z</time>
      </trkpt>
      <trkpt lat="48.61147" lon="-3.87652">
        <ele>71</ele>
        <time>2023-11-05T14:05:45Z</time>
      </trkpt>
      <trkpt lat="48.61145" lon="-3.87623">
        <ele>72</ele>
        <time>2023-11-05T14:06:11Z</time>
      </trkpt>
      <trkpt lat="48.61141" lon="-3.87608">
        <ele>73</ele>
        <time>2023-11-05T14:06:25Z</time>
      </trkpt>
      <trkpt lat="48.61138" lon="-3.87582">
        <ele>74</ele>
        <time>2023-11-05T14:06:49Z</time>
      </trkpt>
      <trkpt lat="48.61137" lon="-3.87553">
        <ele>75</ele>
        <time>2023-11-05T14:07:14Z</time>
      </trkpt>
      <trkpt lat="48.6114" lon="-3.8753">
        <ele>75</ele>
        <time>2023-11-05T14:07:35Z</time>
      </trkpt>
      <trkpt lat="48.61137" lon="-3.87502">
        <ele>76</ele>
        <time>2023-11-05T14:08:00Z</time>
      </trkpt>
      <trkpt lat="48.61122" lon="-3.87486">
        <ele>77</ele>
        <time>2023-11-05T14:08:24Z</time>
      </trkpt>
      <trkpt lat="48.61103" lon="-3.87474">
        <ele>77</ele>
        <time>2023-11-05T14:08:52Z</time>
      </trkpt>
      <trkpt lat="48.61084" lon="-3.87467">
        <ele>77</ele>
        <time>2023-11-05T14:09:18Z</time>
      </trkpt>
      <trkpt lat="48.61066" lon="-3.87457">
        <ele>77</ele>
        <time>2023-11-05T14:09:44Z</time>
      </trkpt>
      <trkpt lat="48.6105" lon="-3.87444">
        <ele>77</ele>
        <time>2023-11-05T14:10:08Z</time>
      </trkpt>
      <trkpt lat="48.61033" lon="-3.87433">
        <ele>77</ele>
        <time>2023-11-05T14:10:32Z</time>
      </trkpt>
      <trkpt lat="48.61014" lon="-3.87426">
        <ele>77</ele>
        <time>2023-11-05T14:10:59Z</time>
      </trkpt>
      <trkpt lat="48.60869" lon="-3.87585">
        <ele>72</ele>
        <time>2023-11-05T14:14:58Z</time>
      </trkpt>
      <trkpt lat="48.6074" lon="-3.87568">
        <ele>70</ele>
        <time>2023-11-05T14:17:50Z</time>
      </trkpt>
      <trkpt lat="48.60517" lon="-3.87838">
        <ele>71</ele>
        <time>2023-11-05T14:24:12Z</time>
      </trkpt>
      <trkpt lat="48.6038" lon="-3.87963">
        <ele>70</ele>
        <time>2023-11-05T14:27:45Z</time>
      </trkpt>
      <trkpt lat="48.60043" lon="-3.88032">
        <ele>72</ele>
        <time>2023-11-05T14:35:19Z</time>
      </trkpt>
      <trkpt lat="48.59844" lon="-3.878">
        <ele>72</ele>
        <time>2023-11-05T14:40:54Z</time>
      </trkpt>
      <trkpt lat="48.5981" lon="-3.88028">
        <ele>76</ele>
        <time>2023-11-05T14:44:20Z</time>
      </trkpt>
      <trkpt lat="48.59909" lon="-3.88113">
        <ele>74</ele>
        <time>2023-11-05T14:46:52Z</time>
      </trkpt>
      <trkpt lat="48.59847" lon="-3.88375">
        <ele>76</ele>
        <time>2023-11-05T14:50:58Z</time>
      </trkpt>
      <trkpt lat="48.59705" lon="-3.88315">
        <ele>72</ele>
        <time>2023-11-05T14:54:15Z</time>
      </trkpt>
      <trkpt lat="48.59574" lon="-3.88573">
        <ele>71</ele>
        <time>2023-11-05T14:59:02Z</time>
      </trkpt>
      <trkpt lat="48.59509" lon="-3.88448">
        <ele>69</ele>
        <time>2023-11-05T15:01:22Z</time>
      </trkpt>
      <trkpt lat="48.59628" lon="-3.88234">
        <ele>67</ele>
        <time>2023-11-05T15:05:29Z</time>
      </trkpt>
      <trkpt lat="48.59368" lon="-3.87661">
        <ele>47</ele>
        <time>2023-11-05T15:15:42Z</time>
      </trkpt>
      <trkpt lat="48.59373" lon="-3.87527">
        <ele>33</ele>
        <time>2023-11-05T15:17:41Z</time>
      </trkpt>
      <trkpt lat="48.59493" lon="-3.87515">
        <ele>36</ele>
        <time>2023-11-05T15:20:21Z</time>
      </trkpt>
      <trkpt lat="48.59549" lon="-3.8744">
        <ele>33</ele>
        <time>2023-11-05T15:22:01Z</time>
      </trkpt>
      <trkpt lat="48.59747" lon="-3.87307">
        <ele>32</ele>
        <time>2023-11-05T15:26:50Z</time>
      </trkpt>
      <trkpt lat="48.59821" lon="-3.87225">
        <ele>26</ele>
        <time>2023-11-05T15:28:53Z</time>
      </trkpt>
      <trkpt lat="48.59952" lon="-3.87251">
        <ele>27</ele>
        <time>2023-11-05T15:31:49Z</time>
      </trkpt>
      <trkpt lat="48.60176" lon="-3.87389">
        <ele>33</ele>
        <time>2023-11-05T15:37:12Z</time>
      </trkpt>
      <trkpt lat="48.60243" lon="-3.87379">
        <ele>34</ele>
        <time>2023-11-05T15:38:41Z</time>
      </trkpt>
      <trkpt lat="48.60252" lon="-3.87307">
        <ele>21</ele>
        <time>2023-11-05T15:39:46Z</time>
      </trkpt>
      <trkpt lat="48.60439" lon="-3.87251">
        <ele>21</ele>
        <time>2023-11-05T15:44:00Z</time>
      </trkpt>
      <trkpt lat="48.60664" lon="-3.87351">
        <ele>54</ele>
        <time>2023-11-05T15:49:13Z</time>
      </trkpt>
      <trkpt lat="48.60674" lon="-3.8729">
        <ele>57</ele>
        <time>2023-11-05T15:50:09Z</time>
      </trkpt>
      <trkpt lat="48.60706" lon="-3.87412">
        <ele>61</ele>
        <time>2023-11-05T15:52:05Z</time>
      </trkpt>
      <trkpt lat="48.60811" lon="-3.87386">
        <ele>69</ele>
        <time>2023-11-05T15:54:27Z</time>
      </trkpt>
      <trkpt lat="48.60989" lon="-3.8742">
        <ele>77</ele>
        <time>2023-11-05T15:58:26Z</time>
      </trkpt>
      <trkpt lat="48.61027" lon="-3.87367">
        <ele>77</ele>
        <time>2023-11-05T15:59:35Z</time>
      </trkpt>
      <trkpt lat="48.61084" lon="-3.8732">
        <ele>78</ele>
        <time>2023-11-05T16:01:02Z</time>
      </trkpt>
      <trkpt lat="48.61183" lon="-3.87243">
        <ele>80</ele>
        <time>2023-11-05T16:03:30Z</time>
      </trkpt>
      <trkpt lat="48.61286" lon="-3.87179">
        <ele>81</ele>
        <time>2023-11-05T16:05:59Z</time>
      </trkpt>
      <trkpt lat="48.61253" lon="-3.8704">
        <ele>79</ele>
        <time>2023-11-05T16:08:09Z</time>
      </trkpt>
      <trkpt lat="48.61268" lon="-3.87023">
        <ele>79</ele>
        <time>2023-11-05T16:08:34Z</time>
      </trkpt>
      <trkpt lat="48.61283" lon="-3.87007">
        <ele>79</ele>
        <time>2023-11-05T16:08:59Z</time>
      </trkpt>
      <trkpt lat="48.61295" lon="-3.86988">
        <ele>78</ele>
        <time>2023-11-05T16:09:22Z</time>
      </trkpt>
      <trkpt lat="48.61309" lon="-3.86967">
        <ele>78</ele>
        <time>2023-11-05T16:09:48Z</time>
      </trkpt>
      <trkpt lat="48.61325" lon="-3.86951">
        <ele>78</ele>
        <time>2023-11-05T16:10:14Z</time>
      </trkpt>
      <trkpt lat="48.61333" lon="-3.8694">
        <ele>78</ele>
        <time>2023-11-05T16:10:28Z</time>
      </trkpt>
      <trkpt lat="48.61347" lon="-3.86926">
        <ele>77</ele>
        <time>2023-11-05T16:10:51Z</time>
      </trkpt>
      <trkpt lat="48.61354" lon="-3.86907">
        <ele>76</ele>
        <time>2023-11-05T16:11:10Z</time>
      </trkpt>
      <trkpt lat="48.61351" lon="-3.86845">
        <ele>72</ele>
        <time>2023-11-05T16:12:05Z</time>
      </trkpt>
      <trkpt lat="48.61346" lon="-3.8681">
        <ele>71</ele>
        <time>2023-11-05T16:12:36Z</time>
      </trkpt>
      <trkpt lat="48.61338" lon="-3.86779">
        <ele>69</ele>
        <time>2023-11-05T16:13:06Z</time>
      </trkpt>
      <trkpt lat="48.61326" lon="-3.86739">
        <ele>68</ele>
        <time>2023-11-05T16:13:44Z</time>
      </trkpt>
      <trkpt lat="48.61319" lon="-3.86688">
        <ele>66</ele>
        <time>2023-11-05T16:14:30Z</time>
      </trkpt>
      <trkpt lat="48.61328" lon="-3.8664">
        <ele>63</ele>
        <time>2023-11-05T16:15:14Z</time>
      </trkpt>
      <trkpt lat="48.61322" lon="-3.86621">
        <ele>61</ele>
        <time>2023-11-05T16:15:33Z</time>
      </trkpt>
      <trkpt lat="48.61319" lon="-3.866">
        <ele>60</ele>
        <time>2023-11-05T16:15:52Z</time>
      </trkpt>
      <trkpt lat="48.61314" lon="-3.86584">
        <ele>58</ele>
        <time>2023-11-05T16:16:07Z</time>
      </trkpt>
      <trkpt lat="48.61302" lon="-3.8655">
        <ele>56</ele>
        <time>2023-11-05T16:16:41Z</time>
      </trkpt>
      <trkpt lat="48.61258" lon="-3.86447">
        <ele>48</ele>
        <time>2023-11-05T16:18:30Z</time>
      </trkpt>
      <trkpt lat="48.61249" lon="-3.86427">
        <ele>47</ele>
        <time>2023-11-05T16:18:51Z</time>
      </trkpt>
      <trkpt lat="48.61234" lon="-3.86415">
        <ele>48</ele>
        <time>2023-11-05T16:19:14Z</time>
      </trkpt>
      <trkpt lat="48.61209" lon="-3.86398">
        <ele>49</ele>
        <time>2023-11-05T16:19:50Z</time>
      </trkpt>
      <trkpt lat="48.61182" lon="-3.86382">
        <ele>51</ele>
        <time>2023-11-05T16:20:29Z</time>
      </trkpt>
      <trkpt lat="48.61149" lon="-3.86364">
        <ele>52</ele>
        <time>2023-11-05T16:21:16Z</time>
      </trkpt>
      <trkpt lat="48.61114" lon="-3.86344">
        <ele>53</ele>
        <time>2023-11-05T16:22:06Z</time>
      </trkpt>
      <trkpt lat="48.61065" lon="-3.8632">
        <ele>55</ele>
        <time>2023-11-05T16:23:14Z</time>
      </trkpt>
      <trkpt lat="48.61034" lon="-3.86319">
        <ele>54</ele>
        <time>2023-11-05T16:23:56Z</time>
      </trkpt>
      <trkpt lat="48.61007" lon="-3.86324">
        <ele>52</ele>
        <time>2023-11-05T16:24:32Z</time>
      </trkpt>
      <trkpt lat="48.60991" lon="-3.86337">
        <ele>49</ele>
        <time>2023-11-05T16:24:56Z</time>
      </trkpt>
      <trkpt lat="48.60968" lon="-3.86363">
        <ele>44</ele>
        <time>2023-11-05T16:25:35Z</time>
      </trkpt>
      <trkpt lat="48.6095" lon="-3.86391">
        <ele>41</ele>
        <time>2023-11-05T16:26:09Z</time>
      </trkpt>
      <trkpt lat="48.60937" lon="-3.86411">
        <ele>38</ele>
        <time>2023-11-05T16:26:34Z</time>
      </trkpt>
      <trkpt lat="48.60923" lon="-3.86422">
        <ele>37</ele>
        <time>2023-11-05T16:26:55Z</time>
      </trkpt>
      <trkpt lat="48.60909" lon="-3.86426">
        <ele>35</ele>
        <time>2023-11-05T16:27:14Z</time>
      </trkpt>
      <trkpt lat="48.60913" lon="-3.86372">
        <ele>37</ele>
        <time>2023-11-05T16:28:02Z</time>
      </trkpt>
      <trkpt lat="48.60901" lon="-3.86265">
        <ele>37</ele>
        <time>2023-11-05T16:29:38Z</time>
      </trkpt>
      <trkpt lat="48.60899" lon="-3.86242">
        <ele>36</ele>
        <time>2023-11-05T16:29:58Z</time>
      </trkpt>
      <trkpt lat="48.60902" lon="-3.86204">
        <ele>34</ele>
        <time>2023-11-05T16:30:32Z</time>
      </trkpt>
      <trkpt lat="48.60906" lon="-3.86169">
        <ele>33</ele>
        <time>2023-11-05T16:31:03Z</time>
      </trkpt>
      <trkpt lat="48.60913" lon="-3.86147">
        <ele>32</ele>
        <time>2023-11-05T16:31:25Z</time>
      </trkpt>
      <trkpt lat="48.60918" lon="-3.86134">
        <ele>32</ele>
        <time>2023-11-05T16:31:38Z</time>
      </trkpt>
      <trkpt lat="48.60927" lon="-3.8611">
        <ele>30</ele>
        <time>2023-11-05T16:32:02Z</time>
      </trkpt>
      <trkpt lat="48.60948" lon="-3.86063">
        <ele>28</ele>
        <time>2023-11-05T16:32:52Z</time>
      </trkpt>
      <trkpt lat="48.60968" lon="-3.86033">
        <ele>27</ele>
        <time>2023-11-05T16:33:30Z</time>
      </trkpt>
      <trkpt lat="48.60981" lon="-3.86013">
        <ele>27</ele>
        <time>2023-11-05T16:33:55Z</time>
      </trkpt>
      <trkpt lat="48.60993" lon="-3.86006">
        <ele>28</ele>
        <time>2023-11-05T16:34:12Z</time>
      </trkpt>
      <trkpt lat="48.61012" lon="-3.86002">
        <ele>28</ele>
        <time>2023-11-05T16:34:37Z</time>
      </trkpt>
      <trkpt lat="48.61041" lon="-3.8601">
        <ele>28</ele>
        <time>2023-11-05T16:35:17Z</time>
      </trkpt>
      <trkpt lat="48.61057" lon="-3.86025">
        <ele>31</ele>
        <time>2023-11-05T16:35:42Z</time>
      </trkpt>
      <trkpt lat="48.61075" lon="-3.8604">
        <ele>34</ele>
        <time>2023-11-05T16:36:09Z</time>
      </trkpt>
      <trkpt lat="48.61085" lon="-3.86053">
        <ele>37</ele>
        <time>2023-11-05T16:36:27Z</time>
      </trkpt>
      <trkpt lat="48.61158" lon="-3.86147">
        <ele>47</ele>
        <time>2023-11-05T16:38:35Z</time>
      </trkpt>
      <trkpt lat="48.61211" lon="-3.86202">
        <ele>34</ele>
        <time>2023-11-05T16:40:01Z</time>
      </trkpt>
      <trkpt lat="48.61241" lon="-3.86236">
        <ele>26</ele>
        <time>2023-11-05T16:40:51Z</time>
      </trkpt>
      <trkpt lat="48.61257" lon="-3.86253">
        <ele>25</ele>
        <time>2023-11-05T16:41:17Z</time>
      </trkpt>
      <trkpt lat="48.61262" lon="-3.86252">
        <ele>24</ele>
        <time>2023-11-05T16:41:24Z</time>
      </trkpt>
      <trkpt lat="48.61254" lon="-3.86204">
        <ele>20</ele>
        <time>2023-11-05T16:42:07Z</time>
      </trkpt>
      <trkpt lat="48.61269" lon="-3.86208">
        <ele>18</ele>
        <time>2023-11-05T16:42:28Z</time>
      </trkpt>
      <trkpt lat="48.61288" lon="-3.86223">
        <ele>18</ele>
        <time>2023-11-05T16:42:56Z</time>
      </trkpt>
      <trkpt lat="48.61303" lon="-3.86239">
        <ele>18</ele>
        <time>2023-11-05T16:43:21Z</time>
      </trkpt>
      <trkpt lat="48.6132" lon="-3.86249">
        <ele>17</ele>
        <time>2023-11-05T16:43:45Z</time>
      </trkpt>
      <trkpt lat="48.61333" lon="-3.86265">
        <ele>19</ele>
        <time>2023-11-05T16:44:07Z</time>
      </trkpt>
      <trkpt lat="48.61351" lon="-3.86272">
        <ele>24</ele>
        <time>2023-11-05T16:44:32Z</time>
      </trkpt>
      <trkpt lat="48.61365" lon="-3.86273">
        <ele>27</ele>
        <time>2023-11-05T16:44:51Z</time>
      </trkpt>
      <trkpt lat="48.6138" lon="-3.86276">
        <ele>31</ele>
        <time>2023-11-05T16:45:11Z</time>
      </trkpt>
      <trkpt lat="48.61402" lon="-3.86277">
        <ele>36</ele>
        <time>2023-11-05T16:45:40Z</time>
      </trkpt>
      <trkpt lat="48.61421" lon="-3.86256">
        <ele>35</ele>
        <time>2023-11-05T16:46:12Z</time>
      </trkpt>
      <trkpt lat="48.61458" lon="-3.86222">
        <ele>36</ele>
        <time>2023-11-05T16:47:10Z</time>
      </trkpt>
      <trkpt lat="48.6148" lon="-3.86203">
        <ele>36</ele>
        <time>2023-11-05T16:47:43Z</time>
      </trkpt>
      <trkpt lat="48.61499" lon="-3.86213">
        <ele>43</ele>
        <time>2023-11-05T16:48:10Z</time>
      </trkpt>
      <trkpt lat="48.61508" lon="-3.86214">
        <ele>45</ele>
        <time>2023-11-05T16:48:22Z</time>
      </trkpt>
      <trkpt lat="48.61553" lon="-3.86202">
        <ele>50</ele>
        <time>2023-11-05T16:49:23Z</time>
      </trkpt>
      <trkpt lat="48.6161" lon="-3.86191">
        <ele>56</ele>
        <time>2023-11-05T16:50:40Z</time>
      </trkpt>
      <trkpt lat="48.6166" lon="-3.86181">
        <ele>59</ele>
        <time>2023-11-05T16:51:47Z</time>
      </trkpt>
      <trkpt lat="48.61696" lon="-3.8603">
        <ele>29</ele>
        <time>2023-11-05T16:54:09Z</time>
      </trkpt>
      <trkpt lat="48.61703" lon="-3.86005">
        <ele>24</ele>
        <time>2023-11-05T16:54:33Z</time>
      </trkpt>
      <trkpt lat="48.61712" lon="-3.86005">
        <ele>25</ele>
        <time>2023-11-05T16:54:45Z</time>
      </trkpt>
      <trkpt lat="48.6174" lon="-3.85971">
        <ele>24</ele>
        <time>2023-11-05T16:55:33Z</time>
      </trkpt>
      <trkpt lat="48.61756" lon="-3.85958">
        <ele>24</ele>
        <time>2023-11-05T16:55:57Z</time>
      </trkpt>
      <trkpt lat="48.61777" lon="-3.8595">
        <ele>27</ele>
        <time>2023-11-05T16:56:26Z</time>
      </trkpt>
      <trkpt lat="48.61849" lon="-3.86006">
        <ele>44</ele>
        <time>2023-11-05T16:58:14Z</time>
      </trkpt>
      <trkpt lat="48.61864" lon="-3.86025">
        <ele>47</ele>
        <time>2023-11-05T16:58:40Z</time>
      </trkpt>
      <trkpt lat="48.61884" lon="-3.86027">
        <ele>49</ele>
        <time>2023-11-05T16:59:07Z</time>
      </trkpt>
      <trkpt lat="48.61903" lon="-3.86035">
        <ele>52</ele>
        <time>2023-11-05T16:59:33Z</time>
      </trkpt>
      <trkpt lat="48.6194" lon="-3.86106">
        <ele>60</ele>
        <time>2023-11-05T17:00:53Z</time>
      </trkpt>
      <trkpt lat="48.61952" lon="-3.86103">
        <ele>60</ele>
        <time>2023-11-05T17:01:09Z</time>
      </trkpt>
      <trkpt lat="48.61969" lon="-3.86101">
        <ele>59</ele>
        <time>2023-11-05T17:01:32Z</time>
      </trkpt>
      <trkpt lat="48.6199" lon="-3.86103">
        <ele>59</ele>
        <time>2023-11-05T17:02:00Z</time>
      </trkpt>
      <trkpt lat="48.61999" lon="-3.86105">
        <ele>59</ele>
        <time>2023-11-05T17:02:12Z</time>
      </trkpt>
      <trkpt lat="48.62017" lon="-3.86101">
        <ele>58</ele>
        <time>2023-11-05T17:02:36Z</time>
      </trkpt>
      <trkpt lat="48.62012" lon="-3.86074">
        <ele>56</ele>
        <time>2023-11-05T17:03:01Z</time>
      </trkpt>
      <trkpt lat="48.62011" lon="-3.86058">
        <ele>54</ele>
        <time>2023-11-05T17:03:15Z</time>
      </trkpt>
      <trkpt lat="48.62011" lon="-3.86039">
        <ele>53</ele>
        <time>2023-11-05T17:03:32Z</time>
      </trkpt>
      <trkpt lat="48.6201" lon="-3.86018">
        <ele>51</ele>
        <time>2023-11-05T17:03:51Z</time>
      </trkpt>
      <trkpt lat="48.6201" lon="-3.86001">
        <ele>49</ele>
        <time>2023-11-05T17:04:06Z</time>
      </trkpt>
      <trkpt lat="48.6201" lon="-3.85975">
        <ele>49</ele>
        <time>2023-11-05T17:04:28Z</time>
      </trkpt>
      <trkpt lat="48.62009" lon="-3.85928">
        <ele>47</ele>
        <time>2023-11-05T17:05:10Z</time>
      </trkpt>
      <trkpt lat="48.61976" lon="-3.85924">
        <ele>45</ele>
        <time>2023-11-05T17:05:54Z</time>
      </trkpt>
      <trkpt lat="48.61973" lon="-3.85911">
        <ele>44</ele>
        <time>2023-11-05T17:06:06Z</time>
      </trkpt>
      <trkpt lat="48.61963" lon="-3.85885">
        <ele>40</ele>
        <time>2023-11-05T17:06:33Z</time>
      </trkpt>
      <trkpt lat="48.61957" lon="-3.85863">
        <ele>37</ele>
        <time>2023-11-05T17:06:54Z</time>
      </trkpt>
      <trkpt lat="48.61969" lon="-3.85827">
        <ele>35</ele>
        <time>2023-11-05T17:07:29Z</time>
      </trkpt>
      <trkpt lat="48.61997" lon="-3.85818">
        <ele>39</ele>
        <time>2023-11-05T17:08:08Z</time>
      </trkpt>
      <trkpt lat="48.62014" lon="-3.8579">
        <ele>34</ele>
        <time>2023-11-05T17:08:41Z</time>
      </trkpt>
      <trkpt lat="48.62025" lon="-3.85771">
        <ele>31</ele>
        <time>2023-11-05T17:09:03Z</time>
      </trkpt>
      <trkpt lat="48.62036" lon="-3.85764">
        <ele>30</ele>
        <time>2023-11-05T17:09:19Z</time>
      </trkpt>
      <trkpt lat="48.62053" lon="-3.85759">
        <ele>30</ele>
        <time>2023-11-05T17:09:42Z</time>
      </trkpt>
      <trkpt lat="48.62067" lon="-3.85757">
        <ele>30</ele>
        <time>2023-11-05T17:10:01Z</time>
      </trkpt>
      <trkpt lat="48.62081" lon="-3.85751">
        <ele>30</ele>
        <time>2023-11-05T17:10:21Z</time>
      </trkpt>
      <trkpt lat="48.62098" lon="-3.85752">
        <ele>29</ele>
        <time>2023-11-05T17:10:43Z</time>
      </trkpt>
      <trkpt lat="48.62131" lon="-3.85758">
        <ele>26</ele>
        <time>2023-11-05T17:11:28Z</time>
      </trkpt>
      <trkpt lat="48.6215" lon="-3.85761">
        <ele>24</ele>
        <time>2023-11-05T17:11:53Z</time>
      </trkpt>
      <trkpt lat="48.62173" lon="-3.85774">
        <ele>23</ele>
        <time>2023-11-05T17:12:26Z</time>
      </trkpt>
      <trkpt lat="48.62192" lon="-3.85774">
        <ele>21</ele>
        <time>2023-11-05T17:12:51Z</time>
      </trkpt>
      <trkpt lat="48.62209" lon="-3.85793">
        <ele>22</ele>
        <time>2023-11-05T17:13:19Z</time>
      </trkpt>
      <trkpt lat="48.62225" lon="-3.85809">
        <ele>22</ele>
        <time>2023-11-05T17:13:45Z</time>
      </trkpt>
      <trkpt lat="48.62243" lon="-3.85826">
        <ele>21</ele>
        <time>2023-11-05T17:14:13Z</time>
      </trkpt>
      <trkpt lat="48.6226" lon="-3.8584">
        <ele>21</ele>
        <time>2023-11-05T17:14:39Z</time>
      </trkpt>
      <trkpt lat="48.62275" lon="-3.8586">
        <ele>22</ele>
        <time>2023-11-05T17:15:06Z</time>
      </trkpt>
      <trkpt lat="48.62291" lon="-3.85874">
        <ele>22</ele>
        <time>2023-11-05T17:15:31Z</time>
      </trkpt>
      <trkpt lat="48.62307" lon="-3.85886">
        <ele>22</ele>
        <time>2023-11-05T17:15:54Z</time>
      </trkpt>
      <trkpt lat="48.62321" lon="-3.85904">
        <ele>23</ele>
        <time>2023-11-05T17:16:19Z</time>
      </trkpt>
      <trkpt lat="48.62338" lon="-3.85918">
        <ele>23</ele>
        <time>2023-11-05T17:16:45Z</time>
      </trkpt>
      <trkpt lat="48.62352" lon="-3.85898">
        <ele>21</ele>
        <time>2023-11-05T17:17:10Z</time>
      </trkpt>
      <trkpt lat="48.62364" lon="-3.85874">
        <ele>18</ele>
        <time>2023-11-05T17:17:37Z</time>
      </trkpt>
      <trkpt lat="48.62383" lon="-3.85878">
        <ele>18</ele>
        <time>2023-11-05T17:18:03Z</time>
      </trkpt>
      <trkpt lat="48.62398" lon="-3.85894">
        <ele>18</ele>
        <time>2023-11-05T17:18:27Z</time>
      </trkpt>
      <trkpt lat="48.6241" lon="-3.85917">
        <ele>19</ele>
        <time>2023-11-05T17:18:53Z</time>
      </trkpt>
      <trkpt lat="48.62426" lon="-3.85933">
        <ele>19</ele>
        <time>2023-11-05T17:19:19Z</time>
      </trkpt>
      <trkpt lat="48.62438" lon="-3.85954">
        <ele>20</ele>
        <time>2023-11-05T17:19:43Z</time>
      </trkpt>
      <trkpt lat="48.62452" lon="-3.85975">
        <ele>20</ele>
        <time>2023-11-05T17:20:09Z</time>
      </trkpt>
      <trkpt lat="48.62463" lon="-3.85999">
        <ele>20</ele>
        <time>2023-11-05T17:20:35Z</time>
      </trkpt>
      <trkpt lat="48.62472" lon="-3.86022">
        <ele>20</ele>
        <time>2023-11-05T17:20:59Z</time>
      </trkpt>
      <trkpt lat="48.62486" lon="-3.86035">
        <ele>19</ele>
        <time>2023-11-05T17:21:21Z</time>
      </trkpt>
      <trkpt lat="48.62507" lon="-3.86016">
        <ele>18</ele>
        <time>2023-11-05T17:21:53Z</time>
      </trkpt>
      <trkpt lat="48.62508" lon="-3.85992">
        <ele>17</ele>
        <time>2023-11-05T17:22:14Z</time>
      </trkpt>
      <trkpt lat="48.6252" lon="-3.85969">
        <ele>16</ele>
        <time>2023-11-05T17:22:40Z</time>
      </trkpt>
      <trkpt lat="48.62527" lon="-3.85962">
        <ele>16</ele>
        <time>2023-11-05T17:22:51Z</time>
      </trkpt>
    </trkseg>
  </trk>
</gpx>